Ulan Bator, Mongolia
Current Conditions -  °F | °C
As of 10:30 PM on Saturday 22 Nov 2014 (Local Time) from ZMUB Reporting Station
Clear Clear  
Wind Chill: -24°   Ceiling: Unl
Heat Index: -17°   Visibility: 6mi
Dew Point: -21°   Wind: 7mph
Humidity: 72%   Direction: 170°S
Pressure: 29.91"   Gusts: NA
Location:  47.92°N, 106.91°E
Report Text: ZMUB 221430Z 17003MPS CAVOK M17/M21 Q1013 NOSIG RMK QFE652.8 65
Loading
Personal Weather Stations






























Interactive Weather Map New forecast layout! Learn more

10-Day Weather Forecast

Advertisements
Track Severe Weather on mobile